Time;durP1;ratioP1;P1;durP2;ratioP2;P2;SDS_P1;SDS_P2;PMS_P1;PMS_P2;Temp;Humidity;BMP_temperature;BMP_pressure;BME280_temperature;BME280_humidity;BME280_pressure;Samples;Min_cycle;Max_cycle;Signal;HPM_P1;HPM_P2
2023/01/26 00:05:30;;;;;;;1999.90;999.90;;;-0.20;99.90;;;;;;6761045;88;21017;-78
2023/01/26 00:15:32;;;;;;;1999.90;999.90;;;-0.40;99.90;;;;;;6765458;88;20715;-78
2023/01/26 00:25:32;;;;;;;1999.90;999.90;;;-0.40;99.90;;;;;;6746814;88;20196;-78
2023/01/26 00:35:33;;;;;;;1999.90;999.90;;;-0.30;99.90;;;;;;6747308;88;20193;-78
2023/01/26 00:45:34;;;;;;;1999.90;999.90;;;-0.40;99.90;;;;;;6746525;88;20209;-79
2023/01/26 00:55:35;;;;;;;1999.90;999.90;;;-0.40;99.90;;;;;;6742800;88;20217;-78
2023/01/26 01:05:36;;;;;;;1999.90;999.90;;;-0.40;99.90;;;;;;6747223;88;20343;-78
2023/01/26 01:15:39;;;;;;;1999.90;999.90;;;-0.30;99.90;;;;;;6746914;88;20207;-78
2023/01/26 01:25:40;;;;;;;1999.90;999.90;;;-0.50;99.90;;;;;;6748137;88;20208;-78
2023/01/26 01:35:40;;;;;;;1999.90;999.90;;;-0.60;99.90;;;;;;6743182;88;21112;-78
2023/01/26 01:45:43;;;;;;;1999.90;999.90;;;-0.60;99.90;;;;;;6745148;88;20188;-78
2023/01/26 01:55:45;;;;;;;1999.90;999.90;;;-0.50;99.90;;;;;;6746286;88;20556;-77
2023/01/26 02:06:06;;;;;;;1999.90;999.90;;;-0.60;99.90;;;;;;6744476;88;20224;-78
2023/01/26 02:16:06;;;;;;;1999.90;999.90;;;-0.50;99.90;;;;;;6749444;88;20201;-78
2023/01/26 02:26:12;;;;;;;1999.90;999.90;;;-0.50;99.90;;;;;;6749520;88;20168;-78
2023/01/26 02:36:22;;;;;;;1999.90;999.90;;;-0.50;99.90;;;;;;6749314;88;20278;-78
2023/01/26 02:46:22;;;;;;;1999.90;999.90;;;-0.60;99.90;;;;;;6749490;88;20292;-79
2023/01/26 02:56:23;;;;;;;1999.90;999.90;;;-0.50;99.90;;;;;;6761263;88;20184;-77
2023/01/26 03:06:23;;;;;;;1999.90;999.90;;;-0.60;99.90;;;;;;6764465;88;20204;-76
2023/01/26 03:16:24;;;;;;;1999.90;999.90;;;-0.70;99.90;;;;;;6764170;88;20242;-77
2023/01/26 03:36:43;;;;;;;1999.90;999.90;;;-0.70;99.90;;;;;;6763596;88;20195;-77
2023/01/26 03:57:03;;;;;;;1999.90;999.90;;;-0.70;99.90;;;;;;6765584;88;20179;-76
2023/01/26 04:27:43;;;;;;;1999.90;999.90;;;-0.70;99.90;;;;;;6750778;88;20198;-76
2023/01/26 04:37:43;;;;;;;1999.90;999.90;;;-1.00;99.90;;;;;;6765237;87;20419;-77
2023/01/26 04:58:46;;;;;;;1999.90;999.90;;;-0.60;99.90;;;;;;6735757;88;20197;-77
2023/01/26 05:08:46;;;;;;;1999.90;999.90;;;-0.60;99.90;;;;;;6736448;88;20216;-75
2023/01/26 05:18:47;;;;;;;1999.90;999.90;;;-0.70;99.90;;;;;;6738002;88;20343;-75
2023/01/26 05:28:47;;;;;;;1999.90;999.90;;;-0.80;99.90;;;;;;6737426;88;20189;-77
2023/01/26 05:38:48;;;;;;;1999.90;999.90;;;-0.80;99.90;;;;;;6732741;88;20217;-74
2023/01/26 05:48:48;;;;;;;1999.90;999.90;;;-1.00;99.90;;;;;;6750741;87;20321;-76
2023/01/26 05:58:49;;;;;;;1999.90;999.90;;;-0.90;99.90;;;;;;6743339;88;20192;-76
2023/01/26 06:08:50;;;;;;;1999.90;999.90;;;-0.90;99.90;;;;;;6736073;88;20253;-77
2023/01/26 06:18:50;;;;;;;1999.90;999.90;;;-0.90;99.90;;;;;;6734831;88;20254;-76
2023/01/26 06:28:52;;;;;;;1999.90;999.90;;;-1.10;99.90;;;;;;6738295;88;21134;-78
2023/01/26 06:38:53;;;;;;;1999.90;999.90;;;-1.10;99.90;;;;;;6750017;88;20193;-81
2023/01/26 06:48:53;;;;;;;1999.90;999.90;;;-1.00;99.90;;;;;;6753304;88;20174;-75
2023/01/26 06:58:54;;;;;;;1999.90;999.90;;;-1.00;99.90;;;;;;6746833;88;20320;-76
2023/01/26 07:08:54;;;;;;;1999.90;999.90;;;-1.10;99.90;;;;;;6737535;88;20198;-77
2023/01/26 07:18:55;;;;;;;1999.90;999.90;;;-1.10;99.90;;;;;;6728977;88;20271;-76
2023/01/26 07:28:56;;;;;;;1999.90;999.90;;;-0.90;99.90;;;;;;6735456;88;20193;-75
2023/01/26 07:38:56;;;;;;;1999.90;999.90;;;-0.70;99.90;;;;;;6736749;88;20270;-77
2023/01/26 07:48:57;;;;;;;1999.90;999.90;;;-0.80;99.90;;;;;;6734192;88;20242;-76
2023/01/26 07:58:57;;;;;;;1999.90;999.90;;;-0.70;99.90;;;;;;6731968;88;20238;-76
2023/01/26 08:08:58;;;;;;;1999.90;999.90;;;-0.80;99.90;;;;;;6730841;88;21082;-77
2023/01/26 08:18:59;;;;;;;1999.90;999.90;;;-0.70;99.90;;;;;;6735110;88;20699;-76
2023/01/26 08:28:59;;;;;;;1999.90;999.90;;;-0.50;99.90;;;;;;6725521;88;20201;-77
2023/01/26 08:39:01;;;;;;;1999.90;999.90;;;-0.40;99.90;;;;;;6727216;88;20332;-75
2023/01/26 08:49:02;;;;;;;1999.90;999.90;;;-0.30;99.90;;;;;;6735816;88;20197;-78
2023/01/26 08:59:02;;;;;;;1999.90;999.90;;;-0.20;99.90;;;;;;6733136;88;20248;-76
2023/01/26 09:09:03;;;;;;;1999.90;999.90;;;-0.10;99.90;;;;;;6735712;88;20559;-76
2023/01/26 09:19:04;;;;;;;1999.90;999.90;;;0.00;99.90;;;;;;6734447;88;20501;-76
2023/01/26 09:29:04;;;;;;;1999.90;999.90;;;0.00;99.90;;;;;;6739549;88;20490;-76
2023/01/26 09:39:05;;;;;;;1999.90;999.90;;;0.00;99.90;;;;;;6738973;88;20189;-76
2023/01/26 09:49:09;;;;;;;1999.90;999.90;;;-0.10;99.90;;;;;;6734657;88;20176;-76
2023/01/26 09:59:12;;;;;;;1999.90;999.90;;;0.00;99.90;;;;;;6737485;88;20633;-77
2023/01/26 10:09:24;;;;;;;1999.90;999.90;;;0.20;99.90;;;;;;6732349;88;20190;-75
2023/01/26 10:19:41;;;;;;;1999.90;999.90;;;0.10;99.90;;;;;;6725365;88;20211;-75
2023/01/26 10:29:41;;;;;;;;;;;0.30;99.90;;;;;;6726004;88;20602;-75
2023/01/26 10:40:03;;;;;;;1999.90;999.90;;;0.40;99.90;;;;;;6729727;88;20066;-75
2023/01/26 10:50:23;;;;;;;1999.90;999.90;;;0.30;99.90;;;;;;6726971;88;20216;-75
2023/01/26 11:00:31;;;;;;;1999.90;999.90;;;0.40;99.90;;;;;;6730872;88;20289;-75
2023/01/26 11:10:37;;;;;;;1999.90;999.90;;;0.50;99.90;;;;;;6725110;88;20319;-75
2023/01/26 11:20:58;;;;;;;1999.90;999.90;;;0.60;99.90;;;;;;6729477;88;20323;-75
2023/01/26 11:31:23;;;;;;;1999.90;999.90;;;0.60;99.90;;;;;;6726652;88;20201;-75
2023/01/26 11:41:44;;;;;;;1999.90;999.90;;;0.70;99.90;;;;;;6726703;88;20267;-75
2023/01/26 11:51:54;;;;;;;1999.90;999.90;;;0.60;99.90;;;;;;6726865;88;20263;-75
2023/01/26 12:02:18;;;;;;;1999.90;999.90;;;0.70;99.90;;;;;;6724589;88;20708;-76
2023/01/26 12:12:51;;;;;;;1999.90;999.90;;;0.70;99.90;;;;;;6723185;88;20763;-74
2023/01/26 12:23:09;;;;;;;1999.90;999.90;;;0.80;99.90;;;;;;6729431;88;20230;-74
2023/01/26 12:33:10;;;;;;;1999.90;999.90;;;0.90;99.90;;;;;;6726087;88;20207;-74
2023/01/26 12:43:35;;;;;;;1999.90;999.90;;;0.80;99.90;;;;;;6737324;88;20189;-74
2023/01/26 12:53:48;;;;;;;1999.90;999.90;;;0.90;99.90;;;;;;6739495;88;20666;-76
2023/01/26 13:04:14;;;;;;;1999.90;999.90;;;0.80;99.90;;;;;;6731051;88;20192;-76
2023/01/26 13:14:59;;;;;;;;;;;;;;;;;;;;;
2023/01/26 13:25:32;;;;;;;1999.90;999.90;;;0.90;99.90;;;;;;6724805;88;20343;-77
2023/01/26 13:35:34;;;;;;;1999.90;999.90;;;0.80;99.90;;;;;;6717667;88;20653;-75
2023/01/26 13:45:44;;;;;;;1999.90;999.90;;;0.80;99.90;;;;;;6720916;88;20727;-75
2023/01/26 13:56:03;;;;;;;1999.90;999.90;;;0.70;99.90;;;;;;6721294;88;20336;-76
2023/01/26 14:07:11;;;;;;;1999.90;999.90;;;0.70;99.90;;;;;;6731688;88;20307;-75
2023/01/26 14:17:53;;;;;;;1999.90;999.90;;;0.70;99.90;;;;;;6701757;88;20216;-75
2023/01/26 14:27:54;;;;;;;1999.90;999.90;;;0.60;99.90;;;;;;6730752;88;20640;-73
2023/01/26 14:38:10;;;;;;;1999.90;999.90;;;0.70;99.90;;;;;;6740526;88;20201;-74
2023/01/26 14:48:13;;;;;;;1999.90;999.90;;;0.60;99.90;;;;;;6735032;88;20598;-74
2023/01/26 14:58:26;;;;;;;1999.90;999.90;;;0.70;99.90;;;;;;6727707;88;20193;-74
2023/01/26 15:08:26;;;;;;;1999.90;999.90;;;0.70;99.90;;;;;;6721162;88;20185;-74
2023/01/26 15:18:32;;;;;;;1999.90;999.90;;;0.60;99.90;;;;;;6729735;88;20691;-75
2023/01/26 15:28:33;;;;;;;1999.90;999.90;;;0.80;99.90;;;;;;6720997;88;20789;-73
2023/01/26 15:38:34;;;;;;;1999.90;999.90;;;0.70;99.90;;;;;;6726797;88;20197;-74
2023/01/26 15:48:35;;;;;;;1999.90;999.90;;;0.70;99.90;;;;;;6732368;88;20649;-74
2023/01/26 15:58:35;;;;;;;1999.90;999.90;;;0.80;99.90;;;;;;6727156;88;20346;-74
2023/01/26 16:08:36;;;;;;;1999.90;999.90;;;0.90;99.90;;;;;;6722908;88;20252;-75
2023/01/26 16:18:36;;;;;;;1999.90;999.90;;;0.80;99.90;;;;;;6724121;88;20200;-74
2023/01/26 16:28:37;;;;;;;1999.90;999.90;;;1.00;99.90;;;;;;6722118;88;20213;-74
2023/01/26 16:38:38;;;;;;;1999.90;999.90;;;0.90;99.90;;;;;;6728273;88;20200;-75
2023/01/26 16:48:39;;;;;;;1999.90;999.90;;;0.90;99.90;;;;;;6749248;77;20735;-75
2023/01/26 16:58:40;;;;;;;1999.90;999.90;;;0.90;99.90;;;;;;6740794;88;20213;-75
2023/01/26 17:08:41;;;;;;;1999.90;999.90;;;0.90;99.90;;;;;;6742208;88;20188;-76
2023/01/26 17:18:43;;;;;;;1999.90;999.90;;;1.00;99.90;;;;;;6727255;88;20280;-77
2023/01/26 17:28:45;;;;;;;1999.90;999.90;;;1.10;99.90;;;;;;6727126;88;20243;-77
2023/01/26 17:38:47;;;;;;;1999.90;999.90;;;1.00;99.90;;;;;;6728939;88;20242;-77
2023/01/26 17:48:49;;;;;;;1999.90;999.90;;;1.30;99.90;;;;;;6746206;88;20184;-78
2023/01/26 17:58:52;;;;;;;1999.90;999.90;;;1.20;99.90;;;;;;6726259;88;20193;-76
2023/01/26 18:08:53;;;;;;;1999.90;999.90;;;1.20;99.90;;;;;;6742006;88;20251;-77
2023/01/26 18:18:55;;;;;;;1999.90;999.90;;;1.30;99.90;;;;;;6751137;88;20192;-78
2023/01/26 18:28:56;;;;;;;1999.90;999.90;;;1.40;99.90;;;;;;6747821;88;20212;-78
2023/01/26 18:38:59;;;;;;;1999.90;999.90;;;1.50;99.90;;;;;;6739547;88;20205;-77
2023/01/26 18:49:01;;;;;;;1999.90;999.90;;;1.60;99.90;;;;;;6737318;88;20219;-76
2023/01/26 18:59:02;;;;;;;1999.90;999.90;;;1.60;99.90;;;;;;6740803;88;20197;-78
2023/01/26 19:09:05;;;;;;;1999.90;999.90;;;1.70;99.90;;;;;;6754532;88;20201;-76
2023/01/26 19:19:06;;;;;;;1999.90;999.90;;;1.90;99.90;;;;;;6744161;88;20233;-78
2023/01/26 19:29:06;;;;;;;1999.90;999.90;;;1.90;99.90;;;;;;6746446;88;20262;-78
2023/01/26 19:39:07;;;;;;;1999.90;999.90;;;1.90;99.90;;;;;;6740251;88;20209;-77
2023/01/26 19:49:10;;;;;;;1999.90;999.90;;;2.10;99.90;;;;;;6730764;88;20199;-77
2023/01/26 19:59:11;;;;;;;1999.90;999.90;;;2.10;99.90;;;;;;6733714;88;20498;-77
2023/01/26 20:09:12;;;;;;;1999.90;999.90;;;2.10;99.90;;;;;;6738630;88;20239;-79
2023/01/26 20:19:12;;;;;;;1999.90;999.90;;;2.20;99.90;;;;;;6739344;88;20249;-78
2023/01/26 20:29:15;;;;;;;1999.90;999.90;;;2.20;99.90;;;;;;6728254;88;20807;-78
2023/01/26 20:39:22;;;;;;;1999.90;999.90;;;2.20;99.90;;;;;;6729845;88;20205;-78
2023/01/26 20:49:23;;;;;;;1999.90;999.90;;;2.30;99.90;;;;;;6727984;88;20199;-78
2023/01/26 20:59:24;;;;;;;1999.90;999.90;;;2.40;99.90;;;;;;6729769;88;20178;-78
2023/01/26 21:09:24;;;;;;;1999.90;999.90;;;2.40;99.90;;;;;;6730909;88;20601;-78
2023/01/26 21:19:25;;;;;;;1999.90;999.90;;;2.40;99.90;;;;;;6730055;88;20766;-78
2023/01/26 21:29:25;;;;;;;1999.90;999.90;;;2.40;99.90;;;;;;6728901;88;20219;-77
2023/01/26 21:39:26;;;;;;;1999.90;999.90;;;2.40;99.90;;;;;;6729066;88;20222;-79
2023/01/26 21:49:29;;;;;;;1999.90;999.90;;;2.50;99.90;;;;;;6727715;88;20181;-79
2023/01/26 21:59:30;;;;;;;1999.90;999.90;;;2.50;99.90;;;;;;6728269;88;20210;-78
2023/01/26 22:09:31;;;;;;;1999.90;999.90;;;2.60;99.90;;;;;;6728980;88;20239;-79
2023/01/26 22:19:31;;;;;;;1999.90;999.90;;;2.70;99.90;;;;;;6730722;88;20310;-78
2023/01/26 22:29:32;;;;;;;1999.90;999.90;;;2.70;99.90;;;;;;6733697;88;20196;-79
2023/01/26 22:39:32;;;;;;;1999.90;999.90;;;2.70;99.90;;;;;;6733551;88;20685;-79
2023/01/26 22:49:33;;;;;;;1999.90;999.90;;;2.80;99.90;;;;;;6745098;77;20216;-76
2023/01/26 22:59:33;;;;;;;1999.90;999.90;;;2.90;99.90;;;;;;6740234;88;20694;-74
2023/01/26 23:09:34;;;;;;;1999.90;999.90;;;3.00;99.90;;;;;;6739734;88;20644;-75
2023/01/26 23:19:34;;;;;;;1999.90;999.90;;;3.10;99.90;;;;;;6742880;88;20202;-75
2023/01/26 23:29:35;;;;;;;1999.90;999.90;;;3.10;99.90;;;;;;6744003;88;20497;-75
2023/01/26 23:39:35;;;;;;;1999.90;999.90;;;3.20;99.90;;;;;;6744957;88;20206;-76
2023/01/26 23:49:36;;;;;;;1999.90;999.90;;;3.20;99.90;;;;;;6741949;88;20196;-75
2023/01/26 23:59:36;;;;;;;1999.90;999.90;;;3.10;99.90;;;;;;6739713;88;20196;-75
